Tiempo atmosférico en la estación meteorológica de Vigo Aeropuerto, Pontevedra (261 m.)



Fecha
DESCASC
Temp. máxima en grados centígrados (hora)
DESCASC
Temp. mínima en grados centígrados (hora)
DESCASC
Temp. media en grados centígrados
DESCASC
Racha de viento máxima en m/sg (hora)
DESCASC
Velocidad máxima media en intervalos de 10 minutos(hora)
DESCASC
Precipitaciones diarias en mm
DESCASC
Precipitaciones de 00:00 a 06:00 en mm
DESCASC
Precipitaciones de 06:00 a 12:00 en mm
DESCASC
Precipitaciones de 12:00 a 18:00 en mm
DESCASC
Precipitaciones de 18:00 a 24:00 en mm
DESCASC
26-03-2020 16.6 (13:50) 6.9 (23:59) 11.8 9.72 (21:10) 6.39 (16:00) 0 0 0 0 0
25-03-2020 17.4 (13:00) 9.2 (07:20) 13.3 11.67 (16:20) 8.61 (16:20) 0 0 0 0 0
24-03-2020 20.7 (14:20) 8.3 (07:20) 14.5 9.17 (16:30) 6.67 (18:40) 0 0 0 0 0
23-03-2020 19.6 (15:40) 7.8 (05:40) 13.7 8.33 (18:00) 5.28 (18:00) 0 0 0 0 0
22-03-2020 17.8 (16:10) 9.3 (07:20) 13.5 7.78 (17:20) 5.56 (17:10) 0 0 0 0 0
21-03-2020 14.6 (11:30) 10.5 (00:00) 12.6 6.67 (14:00) 4.72 (16:40) 3.4 2.7 0 0 0.7
20-03-2020 15.4 (17:00) 10.7 (00:00) 13 5.83 (08:30) 3.89 (02:20) 3.2 0 1.1 1.2 0.9
19-03-2020 19.4 (13:00) 11.2 (00:00) 15.3 7.22 (17:40) 5.28 (17:40) 0 0 0 0 0
18-03-2020 23.5 (15:10) 9.9 (00:00) 16.7 8.33 (15:50) 5.28 (16:40) 0 0 0 0 0
17-03-2020 19.7 (18:40) 4.5 (00:00) 12.1 13.89 (00:30) 7.5 (00:30) 0 0 0 0 0
16-03-2020 12.8 (15:20) 3.2 (00:00) 8 16.11 (20:10) 11.11 (13:40) 0.1 0.1 0 0 0
15-03-2020 12.5 (11:50) 4.2 (00:00) 8.3 10.83 (12:40) 6.67 (12:40) 4.4 0 0 4.2 0.2
14-03-2020 18.3 (15:30) 3.5 (00:00) 10.9 8.33 (17:00) 6.67 (17:10) 0 0 0 0 0
13-03-2020 16.7 (14:30) 6.9 (08:10) 11.8 10.83 (16:30) 7.22 (17:10) 0 0 0 0 0
12-03-2020 17.2 (14:10) 8.9 (00:00) 13.1 15 (18:30) 10 (17:40) 0 0 0 0 0
11-03-2020 17.7 (14:50) 7 (00:00) 12.4 9.17 (16:50) 6.39 (16:50) 0 0 0 0 0
10-03-2020 15.9 (15:50) 5.9 (00:00) 10.9 8.33 (16:40) 6.11 (16:40) 0 0 0 0 0
09-03-2020 14.4 (15:20) 6 (00:00) 10.2 7.22 (17:10) 4.44 (18:10) 0 0 0 0 0
08-03-2020 12.6 (17:30) 7.1 (00:00) 9.9 8.89 (10:30) 5 (10:30) 2.2 0 1 1.2 0
07-03-2020 14.5 (13:30) 6.8 (00:00) 10.7 7.78 (16:50) 5 (16:50) 0 0 0 0 0
06-03-2020 12.7 (14:50) 7.4 (00:00) 10 13.33 (01:10) 6.94 (12:50) 0.9 0.9 0 0 0
05-03-2020 14.8 (00:00) 9.4 (00:00) 12.1 16.11 (02:10) 10.83 (02:10) 36.9 30.8 2.5 0.8 2.8
04-03-2020 15.9 (13:10) 12.8 (00:40) 14.3 13.33 (22:40) 8.61 (22:50) 4.1 0.2 2.2 0.1 1.6
03-03-2020 13.4 (13:00) 8.5 (00:00) 10.9 16.94 (05:30) 8.89 (09:10) 39.4 3.2 8.7 9.5 18
02-03-2020 13.4 (00:00) 6.8 (00:00) 10.1 23.61 (00:10) 13.33 (00:30) 9.6 3.8 5.2 0 0.6
01-03-2020 13.8 (15:40) 8.7 (00:00) 11.3 25.28 (23:10) 15 (23:00) 23 3.1 0.1 1.9 17.9
29-02-2020 13 (04:50) 8.6 (00:00) 10.8 22.22 (05:00) 13.61 (02:30) 18.9 17.1 0.7 0 1.1
28-02-2020 17.7 (16:10) 6.9 (00:00) 12.3 12.5 (23:00) 8.89 (22:30) 0 0 0 0 0

Gráficas

Temp. máximas Temp. mínimas Temp. medias Precipitaciones Rachas de viento máximas Velocidades máximas media en intervalos de 10 minutos

Datos horarios

Fecha y hora oficial Temperatura (ºC) Velocidad del viento (km/h) Dirección del viento Racha (km/h) Dirección de racha Precipitación (mm) Presión (hPa) Tendencia (hPa) Humedad (%)
2020-03-28 23:00:00 8.8 5 Noroeste 8 Noroeste 0 988.8 0.4 76
2020-03-28 22:00:00 8.9 6 Oeste 11 Oeste 0 988.9 1.2 77
2020-03-28 21:00:00 10.9 9 Oeste 21 Oeste 0 988.8 1.8 64
2020-03-28 20:00:00 11.9 7 Noroeste 28 Oeste 0 988.4 1.8 59
2020-03-28 19:00:00 13.6 19 Oeste 35 Oeste 0 987.7 1.1 56
2020-03-28 18:00:00 14.6 25 Oeste 33 Oeste 0 987 -0.1 52
2020-03-28 17:00:00 15.3 23 Oeste 32 Oeste 0 986.6 -0.8 50
2020-03-28 16:00:00 16.2 21 Oeste 32 Oeste 0 986.6 -1.2 46
2020-03-28 15:00:00 16.4 19 Oeste 32 Oeste 0 987.1 -1.1 47
2020-03-28 14:00:00 16.5 7 Norte 22 Nordeste 0 987.4 -0.6 43
2020-03-28 13:00:00 16.5 4 Nordeste 15 Sur 0 987.8 0.3 43
2020-03-28 12:00:00 14.9 5 Sudoeste 15 Sur 0 988.2 1.4 40
2020-03-28 11:00:00 13.1 9 Sudoeste 15 Sudoeste 0 988 1.9 56
2020-03-28 10:00:00 9.8 11 Sur 17 Sudoeste 0 987.5 2 65
2020-03-28 09:00:00 6.7 13 Sudoeste 18 Sudoeste 0 986.8 1.9 79
2020-03-28 08:00:00 6 15 Sudoeste 22 Sudoeste 0 986.1 1.5 83
2020-03-28 07:00:00 6.8 19 Sur 26 Sur 0 985.5 1.2 77
2020-03-28 06:00:00 7.3 17 Sur 21 Sur 0 984.9 0.6 83
2020-03-28 05:00:00 7.2 13 Sudoeste 21 Sudoeste 0 984.6 0.3 84
2020-03-28 04:00:00 8 16 Sudoeste 21 Sudoeste 0 984.3 0.2 76
2020-03-28 03:00:00 7.2 15 Sudoeste 18 Sudoeste 0 984.3 0.4 87
2020-03-28 02:00:00 6.5 5 Oeste 9 Oeste 0 984.3 0.6 86
2020-03-28 01:00:00 7.4 3 Nordeste 11 Nordeste 0 984.1 0.8 90
2020-03-28 00:00:00 9.2 9 Norte 15 Norte 0 983.9 1 69
2020-03-27 23:00:00 8.4 13 Norte 15 Norte 0 983.7 1.6 82
2020-03-27 22:00:00 7.8 5 Norte 11 Oeste 0 983.3 1.7 81
2020-03-27 21:00:00 8.8 9 Oeste 13 Oeste 0 982.9 2 86
2020-03-27 20:00:00 10.1 12 Oeste 22 Oeste 0 982.1 1.5 78
2020-03-27 19:00:00 11.6 14 Oeste 28 Oeste 0 981.6 1.2 68
2020-03-27 18:00:00 12.4 19 Oeste 37 Oeste 0 980.9 0.5 62
2020-03-27 17:00:00 13.2 25 Oeste 37 Oeste 0 980.6 -0.3 55
2020-03-27 16:00:00 14.2 24 Oeste 35 Sudoeste 0 980.4 -0.9 50
2020-03-27 15:00:00 15.6 17 Sudoeste 28 Este 0 980.4 -1.3 45
2020-03-27 14:00:00 15.4 6 Este 24 Este 0 980.9 -0.8 38
2020-03-27 13:00:00 15.3 12 Sudeste 28 Este 0 981.3 -0.1 41
2020-03-27 12:00:00 13.8 11 Este 22 Sudeste 0 981.7 0.8 53
2020-03-27 11:00:00 11.4 8 Sudeste 15 Este 0 981.7 1.3 58
2020-03-27 10:00:00 7.7 7 Sur 15 Sur 0 981.4 1.4 75
2020-03-27 09:00:00 5.4 11 Sur 21 Sur 0 980.9 1 85
2020-03-27 08:00:00 3.5 12 Sur 18 Sur 0 980.4 0.7 93
2020-03-27 07:00:00 3.9 6 Sudoeste 11 Sudoeste 0 980 0.1 88
2020-03-27 06:00:00 3.8 5 Sudoeste 11 Sudoeste 0 979.9 -0.3 84
2020-03-27 05:00:00 4.7 5 Nordeste 22 Norte 0 979.7 -0.9 75
2020-03-27 04:00:00 5.2 7 Norte 17 Norte 0 979.9 -0.8 72
2020-03-27 03:00:00 4.7 3 Norte 9 Norte 0 980.2 -0.7 82
2020-03-27 02:00:00 5.8 9 Norte 13 Norte 0 980.6 -0.4 73
2020-03-27 01:00:00 6.5 12 Norte 22 Norte 0 980.7 -0.4 77
2020-03-27 00:00:00 7.1 10 Nordeste 21 Norte 0 980.9 -0.2 79
2020-03-26 23:00:00 8.8 8 Nordeste 26 Norte 0 981 0.1 74
2020-03-26 22:00:00 10.2 15 Norte 35 Norte 0 981.1 0.4 70
2020-03-26 21:00:00 11 20 Norte 33 Norte 0 981.1 0.4 70
2020-03-26 20:00:00 13.4 15 Norte 26 Norte 0 980.9 0 61
2020-03-26 19:00:00 15.5 9 Noroeste 24 Oeste 0 980.7 -0.6 52
2020-03-26 18:00:00 16.1 17 Oeste 33 Oeste 0 980.7 -1.3 53
2020-03-26 17:00:00 16.1 18 Oeste 33 Oeste 0 980.9 -1.8 57
2020-03-26 16:00:00 15.6 23 Oeste 33 Oeste 0 981.3 -2 60
2020-03-26 15:00:00 15.2 19 Oeste 30 Oeste 0 982 -1.7 58
2020-03-26 14:00:00 16.2 10 Noroeste 21 Oeste 0 982.7 -1.2 52
2020-03-26 13:00:00 14.6 9 Oeste 22 Sudoeste 0 983.3 -1 66
2020-03-26 12:00:00 14.2 6 Sudoeste 15 Oeste 0 983.7 -0.6 67
2020-03-26 11:00:00 11.8 6 Sudeste 13 Sudeste 0 983.9 -0.4 79
2020-03-26 10:00:00 9.3 3 Este 13 Este 0 984.3 0.3 99
2020-03-26 09:00:00 8.5 5 Sudeste 11 Este 0 984.3 0.4 100
2020-03-26 08:00:00 8.4 6 Este 13 Este 0 984.3 0.2 100
2020-03-26 07:00:00 8.8 6 Este 11 Este 0 984 -0.6 100
2020-03-26 06:00:00 9.2 0 Calma 13 Norte 0 983.9 -1.1 100
2020-03-26 05:00:00 9.5 3 Norte 9 Nordeste 0 984.1 -1.1 100
2020-03-26 04:00:00 9.7 6 Norte 11 Norte 0 984.6 -0.9 100
2020-03-26 03:00:00 9.8 4 Nordeste 8 Este 0 985 -0.5 100
2020-03-26 02:00:00 9.8 0 Calma 9 Nordeste 0 985.2 -0.6 100
2020-03-26 01:00:00 9.9 4 Este 9 Norte 0 985.5 -0.6 100
2020-03-26 00:00:00 10 8 Oeste 15 Oeste 0 985.5 -0.4 100
2020-03-25 23:00:00 9.9 10 Oeste 18 Oeste 0 985.8 -0.1 100
2020-03-25 22:00:00 9.5 6 Noroeste 9 Noroeste 0 986.1 0.6 100
2020-03-25 21:00:00 9.8 4 Noroeste 15 Oeste 0 985.9 0.2 100
2020-03-25 20:00:00 10.8 12 Oeste 21 Oeste 0 985.9 0.3 100
2020-03-25 19:00:00 11.6 9 Oeste 26 Oeste 0 985.5 -0.2 97
2020-03-25 18:00:00 12.1 21 Oeste 35 Oeste 0 985.7 -0.1 92
2020-03-25 17:00:00 12.8 21 Oeste 42 Oeste 0 985.6 -0.5 90
2020-03-25 16:00:00 14.6 28 Oeste 39 Oeste 0 985.7 -0.8 83
2020-03-25 15:00:00 16 21 Oeste 35 Oeste 0 985.8 -0.6 78
2020-03-25 14:00:00 15.5 21 Oeste 30 Oeste 0 986.1 -0.4 84
2020-03-25 13:00:00 17.2 15 Oeste 22 Oeste 0 986.5 0.2 74
2020-03-25 12:00:00 16.7 14 Sudoeste 21 Sudoeste 0 986.4 0.3 65
2020-03-25 11:00:00 15.4 11 Oeste 17 Oeste 0 986.5 0.8 66
2020-03-25 10:00:00 13.3 9 Sudoeste 13 Sudoeste 0 986.3 0.9 73
2020-03-25 09:00:00 12.2 8 Sur 15 Sudoeste 0 986.1 0.9 82
2020-03-25 08:00:00 10 11 Sudoeste 15 Sudoeste 0 985.7 0.7 87
2020-03-25 07:00:00 10.3 9 Sudoeste 13 Sudoeste 0 985.4 0.3 82
2020-03-25 06:00:00 10.8 8 Sudoeste 11 Oeste 0 985.2 -0.1 78
2020-03-25 05:00:00 10 5 Oeste 8 Oeste 0 985 -0.5 82
2020-03-25 04:00:00 10.2 4 Oeste 5 Oeste 0 985.1 -0.4 80
2020-03-25 03:00:00 10.9 3 Noroeste 5 Noroeste 0 985.3 -0.3 76
2020-03-25 02:00:00 10.9 4 Noroeste -- -- 0 985.5 -0.1 78
2020-03-25 01:00:00 11.5 3 Noroeste 8 Norte 0 985.5 0 75
2020-03-25 00:00:00 11.7 4 Noroeste 9 Norte 0 985.6 0.4 70
2020-03-24 23:00:00 11.7 6 Noroeste 13 Oeste 0 985.6 0.6 71
2020-03-24 22:00:00 12.9 12 Oeste 15 Oeste 0 985.5 1 70
2020-03-24 21:00:00 13.3 10 Oeste 15 Oeste 0 985.2 1.1 75
2020-03-24 20:00:00 14.5 0 Calma 28 Oeste 0 985 0.9 69
2020-03-24 19:00:00 16 22 Oeste 32 Oeste 0 984.5 0.2 59
2020-03-24 18:00:00 17.8 21 Oeste 30 Oeste 0 984.1 -0.4 50
2020-03-24 17:00:00 18.8 18 Oeste 33 Oeste 0 984.1 -0.9 49
2020-03-24 16:00:00 19.5 19 Oeste 30 Oeste 0 984.3 -1.2 46
2020-03-24 15:00:00 20.2 17 Oeste 26 Oeste 0 984.5 -1.4 44
2020-03-24 14:00:00 20.4 5 Sudoeste 17 Este 0 985 -0.7 46
2020-03-24 13:00:00 19.1 7 Sudoeste 13 Sudoeste 0 985.5 0 45
2020-03-24 12:00:00 17.4 6 Sudoeste 13 Sudoeste 0 985.9 0.7 58
2020-03-24 11:00:00 14.9 11 Sudoeste 17 Sur 0 985.7 0.6 71
2020-03-24 10:00:00 13 10 Sur 22 Sur 0 985.5 1.1 78
2020-03-24 09:00:00 9.8 10 Sur 18 Sudoeste 0 985.2 0.9 97
2020-03-24 08:00:00 8.5 12 Sudoeste 21 Sudoeste 0 985.1 0.7 100
2020-03-24 07:00:00 8.4 10 Oeste 15 Sudoeste 0 984.4 0 100
2020-03-24 06:00:00 9.1 9 Sudoeste 15 Sudoeste 0 984.3 -0.4 99
2020-03-24 05:00:00 9.4 8 Oeste 17 Sudoeste 0 984.4 -0.4 97
2020-03-24 04:00:00 9.2 9 Oeste 17 Oeste 0 984.4 -0.5 100
2020-03-24 03:00:00 9.3 10 Sudoeste 17 Sur 0 984.7 -0.1 100
2020-03-24 02:00:00 9.5 5 Sudoeste 9 Sur 0 984.8 0.3 97
2020-03-24 01:00:00 8.9 0 Calma 5 Este 0 984.9 0.4 100
2020-03-24 00:00:00 9.2 0 Calma 9 Nordeste 0 984.8 1 100
2020-03-23 23:00:00 9.9 7 Nordeste 17 Norte 0 984.5 1.1 98
2020-03-23 22:00:00 10.8 12 Nordeste 18 Nordeste 0 984.5 1.3 96
2020-03-23 21:00:00 11.9 14 Norte 26 Norte 0 983.8 0.7 92
2020-03-23 20:00:00 13.4 13 Norte 28 Norte 0 983.4 0.1 83
2020-03-23 19:00:00 15.4 17 Norte 28 Norte 0 983.2 -0.4 74
2020-03-23 18:00:00 17.2 19 Norte 30 Norte 0 983.1 -1 64
2020-03-23 17:00:00 18.5 17 Norte 28 Norte 0 983.3 -1.7 59
2020-03-23 16:00:00 19.2 9 Norte 21 Noroeste 0 983.6 -1.9 50
2020-03-23 15:00:00 19 5 Nordeste 15 Nordeste 0 984.1 -1.7 51
2020-03-23 14:00:00 17.9 5 Nordeste 15 Nordeste 0 985 -1.2 59
2020-03-23 13:00:00 17.2 6 Este 15 Nordeste 0 985.5 -0.3 64
2020-03-23 12:00:00 14.9 4 Norte 13 Este 0 985.8 0.5 71
2020-03-23 11:00:00 13.7 5 Nordeste 13 Sur 0 986.2 1.4 82
2020-03-23 10:00:00 11 9 Sudoeste 13 Sudoeste 0 985.8 1.5 96
2020-03-23 09:00:00 9.9 3 Sudeste 8 Sur 0 985.3 1.3 100
2020-03-23 08:00:00 8.3 4 Sur 8 Sudeste 0 984.8 1.1 100
2020-03-23 07:00:00 8.1 0 Calma 8 Oeste 0 984.3 0.7 100
2020-03-23 06:00:00 7.8 5 Oeste 8 Oeste 0 984 0.3 100
2020-03-23 05:00:00 8.2 0 Calma 5 Oeste 0 983.7 -0.3 100
2020-03-23 04:00:00 9 0 Calma 15 Norte 0 983.6 -0.5 100
2020-03-23 03:00:00 9.2 5 Este 11 Norte 0 983.7 -0.7 100
2020-03-23 02:00:00 10.5 10 Norte 18 Norte 0 984 0 93
2020-03-23 01:00:00 10.5 13 Norte 18 Norte 0 984.1 0.3 98
2020-03-23 00:00:00 11.4 10 Norte 18 Norte 0 984.4 1.1 99
2020-03-22 23:00:00 11.9 9 Norte 15 Norte 0 984 1.3 100
2020-03-22 22:00:00 12.2 9 Nordeste 21 Norte 0 983.8 1.4 100
2020-03-22 21:00:00 13.1 13 Norte 18 Norte 0 983.3 1.2 97
2020-03-22 20:00:00 12.8 14 Oeste 21 Oeste 0 982.7 0.7 98
2020-03-22 19:00:00 13.8 13 Oeste 26 Oeste 0 982.4 0.4 93
2020-03-22 18:00:00 15 20 Oeste 28 Oeste 0 982.1 -0.2 85
2020-03-22 17:00:00 16.7 17 Oeste 26 Oeste 0 982 -0.6 74
2020-03-22 16:00:00 17.1 4 Nordeste 24 Noroeste 0 982 -0.9 73
2020-03-22 15:00:00 16.5 6 Norte 17 Nordeste 0 982.3 -0.9 72
2020-03-22 14:00:00 15.9 9 Nordeste 18 Nordeste 0 982.6 -0.4 78
2020-03-22 13:00:00 15.9 4 Nordeste 13 Este 0 982.9 0.1 75
2020-03-22 12:00:00 14.7 5 Nordeste 15 Nordeste 0 983.2 0.9 88
2020-03-22 11:00:00 12.5 8 Norte 15 Nordeste 0 983 1.2 91
2020-03-22 10:00:00 11.3 8 Nordeste 13 Norte 0 982.8 1.3 100
2020-03-22 09:00:00 10.1 8 Nordeste 13 Nordeste 0 982.3 1 100
2020-03-22 08:00:00 9.6 7 Norte 15 Norte 0 981.8 0.5 100
2020-03-22 07:00:00 9.5 7 Norte 15 Norte 0 981.5 0.2 100
2020-03-22 06:00:00 9.9 10 Norte 18 Norte 0 981.3 -0.1 100
2020-03-22 05:00:00 10.4 9 Norte 21 Norte 0 981.3 -0.1 100
2020-03-22 04:00:00 10.6 3 Nordeste 11 Norte 0 981.3 -0.3 100
2020-03-22 03:00:00 10.1 6 Norte 13 Norte 0 981.4 -0.4 100
2020-03-22 02:00:00 10.5 7 Nordeste 11 Norte 0 981.4 0.5 100
2020-03-22 01:00:00 10.6 7 Norte 9 Norte 0 981.6 0.1 100
2020-03-22 00:00:00 10.8 0 Calma 21 Oeste 0.3 981.8 0.8 100
2020-03-21 23:00:00 10.8 13 Oeste 21 Oeste 0.4 980.9 0.1 100
2020-03-21 22:00:00 10.8 3 Norte 11 Norte 0 981.5 1.2 100
2020-03-21 21:00:00 11.1 8 Norte 15 Oeste 0 981 1.3 100
2020-03-21 20:00:00 11.3 8 Noroeste 18 Noroeste 0 980.8 1.2 100
2020-03-21 19:00:00 11.2 11 Oeste 21 Oeste 0 980.3 0.6 100
2020-03-21 18:00:00 11.7 16 Oeste 24 Oeste 0 979.7 -0.3 100
2020-03-21 17:00:00 12.4 15 Oeste 24 Oeste 0 979.6 -0.6 93
2020-03-21 16:00:00 12.2 14 Oeste 22 Oeste 0 979.7 -0.4 95
2020-03-21 15:00:00 12.3 14 Oeste 24 Oeste 0 980 -0.1 93
2020-03-21 14:00:00 13.2 15 Oeste 24 Oeste 0 980.2 0.3 98
2020-03-21 13:00:00 14.1 7 Sur 13 Sur 0 980.1 0.2 78
2020-03-21 12:00:00 13.9 7 Sur 17 Sur 0 980.1 0.5 89
2020-03-21 11:00:00 13.2 12 Sur 17 Sudoeste 0 979.9 0.8 95
2020-03-21 10:00:00 11.1 9 Sur 15 Sur 0 979.9 1.1 100
2020-03-21 09:00:00 10.8 10 Sur 17 Sur 0 979.6 0.8 100
2020-03-21 08:00:00 10.6 4 Sudoeste 17 Norte 0 979.1 -0.1 100
2020-03-21 07:00:00 10.7 12 Norte 17 Norte 0 978.8 -0.7 100
2020-03-21 06:00:00 10.5 3 Oeste 8 Oeste 0 978.8 -0.8 100
2020-03-21 05:00:00 10.6 5 Sur 17 Sur 0.3 979.2 -1.2 100
2020-03-21 04:00:00 10.8 6 Sur 9 Sur 0 979.5 -1.2 100
2020-03-21 03:00:00 11.2 4 Norte 9 Norte 0.2 979.6 -1.5 100
2020-03-21 02:00:00 11 7 Sur 15 Sur 1.8 980.4 -1.2 100
2020-03-21 01:00:00 11.5 6 Oeste 8 Oeste 0.4 980.7 -0.9 100
2020-03-21 00:00:00 11.5 5 Noroeste 11 Sudoeste 0.3 981.1 -0.5 100
2020-03-20 23:00:00 11.7 4 Noroeste 11 Sudoeste 0.6 981.6 0.1 100
2020-03-20 22:00:00 11.5 5 Sudoeste 11 Sudoeste 0 981.6 0.2 100
2020-03-20 21:00:00 11.5 7 Oeste 21 Oeste 0 981.6 0.3 100
2020-03-20 20:00:00 11.7 7 Oeste 13 Oeste 0 981.5 0.1 100
2020-03-20 19:00:00 12.4 6 Oeste 15 Oeste 0 981.4 -0.4 100
2020-03-20 18:00:00 13.5 10 Oeste 15 Oeste 0 981.3 -0.9 100
2020-03-20 17:00:00 15.2 3 Oeste 11 Sur 0 981.4 -1.3 88
2020-03-20 16:00:00 13.3 3 Este 13 Sur 0 981.8 -1 100
2020-03-20 15:00:00 12.7 4 Este 13 Sur 0.8 982.2 -0.8 100
2020-03-20 14:00:00 12.4 9 Sur 13 Sudoeste 0 982.7 -0.5 100
2020-03-20 13:00:00 12.2 3 Nordeste 9 Nordeste 0.4 982.8 0.1 100
2020-03-20 12:00:00 12.3 4 Este 9 Sudoeste 1.1 983 0.5 100
2020-03-20 11:00:00 11.6 8 Sudoeste 9 Sudoeste 0 983.2 0.7 100
2020-03-20 10:00:00 11.7 3 Nordeste 15 Oeste 0 982.7 0.4 100
2020-03-20 09:00:00 11 10 Oeste 21 Oeste 0 982.5 0.2 100
2020-03-20 08:00:00 10.9 7 Oeste 9 Oeste 0 982.5 0.1 100
2020-03-20 07:00:00 11.1 4 Oeste 9 Oeste 0 982.3 -0.2 100
2020-03-20 06:00:00 11.1 6 Sudoeste 11 Sudoeste 0 982.3 -0.6 100
2020-03-20 05:00:00 11 10 Sur 13 Sur 0 982.4 -0.7 100
2020-03-20 04:00:00 11.1 6 Sudoeste 15 Sudoeste 0 982.5 -1.1 100
2020-03-20 03:00:00 11.3 9 Sudoeste 18 Oeste 0 982.9 -1.1 100
2020-03-20 02:00:00 11.4 10 Sudoeste -- -- -- 983.1 -1.3 100
2020-03-20 01:00:00 11.5 6 Sur 9 Sur 0 983.6 -1 100
2020-03-20 00:00:00 11.4 2 Oeste 5 Oeste 0 984 -0.9 100
2020-03-19 23:00:00 11.4 4 Noroeste 9 Noroeste 0 984.4 -0.5 100
2020-03-19 22:00:00 11.5 9 Oeste 15 Oeste 0 984.6 0 100
2020-03-19 21:00:00 11.6 6 Oeste 13 Oeste 0 984.9 0.5 100
2020-03-19 20:00:00 11.9 5 Noroeste 18 Noroeste 0 984.9 0.1 100
2020-03-19 19:00:00 13.1 7 Noroeste 21 Oeste 0 984.6 -0.8 100
2020-03-19 18:00:00 14.3 15 Oeste 26 Oeste 0 984.4 -1.7 95
2020-03-19 17:00:00 18.4 10 Oeste 15 Oeste 0 984.8 -2.2 70
2020-03-19 16:00:00 17.1 9 Oeste 21 Oeste 0 985.4 -2.1 79
2020-03-19 15:00:00 17.9 13 Oeste 24 Oeste 0 986.1 -2.1 73
2020-03-19 14:00:00 18.2 15 Oeste 21 Oeste 0 987 -1.4 71
2020-03-19 13:00:00 19.3 10 Sur 18 Sur 0 987.5 -1 60
2020-03-19 12:00:00 17.4 14 Sudoeste 22 Sur 0 988.2 0.1 64
2020-03-19 11:00:00 16.1 11 Sur 17 Sur 0 988.4 0.4 71
2020-03-19 10:00:00 13.9 13 Sudoeste 17 Sudoeste 0 988.5 0.7 81
2020-03-19 09:00:00 12.8 10 Sudoeste 17 Sudoeste 0 988.1 0.2 83
2020-03-19 08:00:00 12 12 Sudoeste 17 Sudoeste 0 988 0.1 90
2020-03-19 07:00:00 12.5 10 Sudoeste 13 Sudoeste 0 987.8 -0.4 87
2020-03-19 06:00:00 13.1 8 Sudoeste 15 Sudoeste 0 987.9 -1.1 85
2020-03-19 05:00:00 13 11 Sudoeste 17 Sudoeste 0 987.9 -1.6 88
2020-03-19 04:00:00 13.3 14 Sudoeste 21 Sudoeste 0 988.2 -1.7 87
2020-03-19 03:00:00 13.5 13 Sudoeste 17 Sudoeste 0 989 -1.3 86
2020-03-19 02:00:00 14 8 Sudoeste -- -- -- 989.5 -1 84
2020-03-19 01:00:00 13.3 4 Oeste 5 Oeste 0 989.9 -0.6 91
2020-03-19 00:00:00 14 4 Noroeste 8 Noroeste 0 990.3 -0.2 87
2020-03-18 23:00:00 14.2 5 Noroeste 9 Noroeste 0 990.5 0.2 82
2020-03-18 22:00:00 14.6 4 Noroeste 11 Noroeste 0 990.5 0.2 79
2020-03-18 21:00:00 15.7 8 Oeste 17 Oeste 0 990.5 0.3 72
2020-03-18 20:00:00 16.9 12 Oeste 21 Oeste 0 990.3 -0.1 63
2020-03-18 19:00:00 17.8 14 Oeste 21 Oeste 0 990.3 -0.5 60
2020-03-18 18:00:00 19.9 14 Oeste 21 Sudoeste 0 990.2 -1.1 57
2020-03-18 17:00:00 20.3 15 Oeste 26 Oeste 0 990.4 -1.8 59
2020-03-18 16:00:00 21.1 14 Oeste 30 Oeste 0 990.8 -1.8 57
2020-03-18 15:00:00 23 7 Sur 13 Este 0 991.3 -2.2 47
2020-03-18 14:00:00 22.4 6 Este 17 Este 0 992.2 -1.9 51
2020-03-18 13:00:00 20.7 8 Nordeste 17 Nordeste 0 992.6 -1.6 56
2020-03-18 12:00:00 19 7 Nordeste 13 Este 0 993.5 -0.5 63
2020-03-18 11:00:00 15.9 5 Este 15 Sudoeste 0 994.1 0.1 74
2020-03-18 10:00:00 12.1 9 Sudoeste 17 Sudoeste 0 994.2 0 85
2020-03-18 09:00:00 10.7 10 Sudoeste 17 Sudoeste 0 994 0.2 92
2020-03-18 08:00:00 10 8 Sudoeste 11 Sudoeste 0 994 0.4 94
2020-03-18 07:00:00 10.1 8 Sudoeste 15 Sudoeste 0 994.2 0.3 97
2020-03-18 06:00:00 10.8 10 Sudoeste 15 Sudoeste 0 993.8 -0.4 93
2020-03-18 05:00:00 10.8 9 Sudoeste 13 Sudoeste 0 993.6 -0.8 93
2020-03-18 04:00:00 12 2 Este 8 Norte 0 993.9 -0.8 78
2020-03-18 03:00:00 12.3 3 Este 9 Norte 0 994.2 -1 78
2020-03-18 02:00:00 12.8 3 Nordeste -- -- -- 994.4 -0.6 75
2020-03-18 01:00:00 12.8 5 Norte 11 Norte 0 994.7 0 76
2020-03-18 00:00:00 14 5 Nordeste 15 Este 0 995.2 1 71
2020-03-17 23:00:00 15.8 7 Nordeste 21 Sudeste 0 995 1.7 63
2020-03-17 22:00:00 15.5 6 Este 17 Nordeste 0 994.7 1.9 65
2020-03-17 21:00:00 16.1 8 Norte 15 Nordeste 0 994.2 1.6 62
2020-03-17 20:00:00 17.2 11 Norte 17 Norte 0 993.3 0.6 61
2020-03-17 19:00:00 19.3 7 Noroeste 13 Oeste 0 992.8 0 55
2020-03-17 18:00:00 19 7 Nordeste 15 Nordeste 0 992.6 -0.2 55
2020-03-17 17:00:00 19.1 9 Norte 22 Nordeste 0 992.7 -0.8 53
2020-03-17 16:00:00 19.1 9 Nordeste 21 Nordeste 0 992.8 -1.3 55
2020-03-17 15:00:00 18.2 12 Nordeste 18 Nordeste 0 992.8 -1.5 55
2020-03-17 14:00:00 17.3 11 Nordeste 18 Norte 0 993.5 -0.9 57
2020-03-17 13:00:00 16.3 5 Este 13 Sur 0 994.1 -0.2 58
2020-03-17 12:00:00 13.9 6 Sudoeste 15 Este 0 994.3 0.4 57
2020-03-17 11:00:00 11.6 6 Sudeste 15 Sudoeste 0 994.4 0.8 62
2020-03-17 10:00:00 9.8 8 Sur 15 Sur 0 994.3 1.2 67
2020-03-17 09:00:00 8 5 Este 15 Norte 0 993.9 1.3 76
2020-03-17 08:00:00 4.7 3 Sudeste 13 Oeste 0 993.6 1.4 88
2020-03-17 07:00:00 5.7 8 Norte 15 Norte 0 993.1 0.7 81
2020-03-17 06:00:00 6.4 5 Norte 13 Norte 0 992.6 0 75
2020-03-17 05:00:00 6.6 9 Norte 18 Norte 0 992.2 -0.5 74
2020-03-17 04:00:00 6.4 13 Nordeste 26 Norte 0 992.4 -0.6 74
2020-03-17 03:00:00 6.7 14 Este 28 Nordeste 0 992.6 -0.4 73
2020-03-17 02:00:00 7 14 Nordeste -- -- -- 992.7 -0.5 75
2020-03-17 01:00:00 7.6 17 Norte 50 Norte 0 993 0.1 72
2020-03-17 00:00:00 7.3 19 Nordeste 35 Norte 0 993 0.1 78
2020-03-16 23:00:00 7.1 4 Este 33 Norte 0 993.2 0.7 77
2020-03-16 22:00:00 8.2 21 Norte 33 Norte 0 992.9 1.1 68
2020-03-16 21:00:00 8.3 15 Nordeste 58 Norte 0 992.9 1.6 68
2020-03-16 20:00:00 9.3 21 Nordeste 48 Norte 0 992.5 1.4 66
2020-03-16 19:00:00 10.2 26 Norte 50 Norte 0 991.8 0.4 66
2020-03-16 18:00:00 11.7 24 Norte 50 Norte 0 991.3 -0.1 60
2020-03-16 17:00:00 12.2 27 Norte 50 Norte 0 991.1 -0.9 58
2020-03-16 16:00:00 11 31 Norte 50 Norte 0 991.4 -0.5 64
2020-03-16 15:00:00 12.2 22 Norte 45 Nordeste 0 991.4 -0.9 55
2020-03-16 14:00:00 10.6 25 Norte 52 Norte 0 992 -0.1 71
2020-03-16 13:00:00 11.3 28 Nordeste 54 Norte 0 991.9 0.3 63
2020-03-16 12:00:00 9.1 25 Norte 42 Norte 0 992.3 1.5 76
2020-03-16 11:00:00 8.2 23 Norte 41 Norte 0 992.1 1.9 83
2020-03-16 10:00:00 7.4 9 Este 17 Nordeste 0 991.6 1.9 100
2020-03-16 09:00:00 4.6 6 Sudeste 17 Norte 0 990.8 1.5 100
2020-03-16 08:00:00 3.5 5 Este 13 Nordeste 0 990.2 1.2 100
2020-03-16 07:00:00 3.6 0 Calma 17 Norte 0 989.7 0.9 100
2020-03-16 06:00:00 5 11 Noroeste 18 Norte 0 989.3 0.4 99
2020-03-16 05:00:00 4.6 10 Norte 18 Norte 0 989 0.6 100
2020-03-16 04:00:00 4.3 10 Norte 18 Noroeste 0 988.8 0.6 100
2020-03-16 03:00:00 4.1 8 Noroeste 13 Norte 0.1 988.9 0.9 100
2020-03-16 02:00:00 4 4 Noroeste -- -- -- 988.4 0.6 100
2020-03-16 01:00:00 3.8 4 Noroeste 8 Norte 0 988.2 1.1 100
2020-03-16 00:00:00 4.4 2 Noroeste 17 Norte 0 988 1.3 100
2020-03-15 23:00:00 4.7 7 Norte 11 Norte 0 987.8 1.5 98
2020-03-15 22:00:00 5.4 7 Norte 33 Norte 0.2 987.1 1.1 93
2020-03-15 21:00:00 6.5 13 Noroeste 26 Noroeste 0 986.7 0.8 84
2020-03-15 20:00:00 6.9 12 Noroeste 24 Noroeste 0 986.3 0.5 84
2020-03-15 19:00:00 7.8 10 Noroeste 22 Noroeste 0 986 0.5 81
2020-03-15 18:00:00 7.5 18 Norte 32 Norte 0 985.9 0.6 89
2020-03-15 17:00:00 7.9 8 Oeste 26 Norte 0.1 985.8 0.3 88
2020-03-15 16:00:00 6.7 9 Norte 33 Norte 0.7 985.5 0.3 100
2020-03-15 15:00:00 7.9 9 Nordeste 22 Norte 0.4 985.3 1 100
2020-03-15 14:00:00 8.1 11 Norte 30 Noroeste 1.2 985.5 0.4 100
2020-03-15 13:00:00 8.7 23 Noroeste 39 Noroeste 1.8 985.2 -0.2 100
2020-03-15 12:00:00 12 15 Sur 30 Sur 0 984.3 -1.3 85
2020-03-15 11:00:00 11.2 15 Sur 22 Sur 0 985.1 -0.8 94
2020-03-15 10:00:00 9.4 13 Sur 21 Sudoeste 0 985.4 -0.7 100
2020-03-15 09:00:00 7.9 12 Sudoeste 18 Sur 0 985.6 -0.3 100
2020-03-15 08:00:00 7.3 12 Sur 17 Sur 0 985.9 0.1 100
2020-03-15 07:00:00 8.9 -- -- -- -- 0 986.1 0.3 100
2020-03-15 06:00:00 8.4 6 Norte 13 Norte 0 985.9 0 100
2020-03-15 05:00:00 8.3 6 Oeste 15 Oeste 0 985.8 -0.6 100
2020-03-15 04:00:00 7.3 6 Sudoeste 9 Oeste 0 985.8 -1.2 100
2020-03-15 03:00:00 7.6 6 Sudoeste 9 Sudoeste 0 985.9 -1.9 100
2020-03-15 02:00:00 8 5 Norte -- -- -- 986.4 -1.6 100
2020-03-15 01:00:00 8.3 3 Norte 9 Norte 0 987 -1.1 100
2020-03-15 00:00:00 8.6 7 Norte 8 Norte 0 987.8 -0.5 100
2020-03-14 23:00:00 8.7 2 Oeste 15 Oeste 0 988 -0.4 100
2020-03-14 22:00:00 9.1 5 Oeste 15 Oeste 0 988.1 -0.4 100
2020-03-14 21:00:00 10.8 12 Oeste 24 Oeste 0 988.3 -0.3 100
2020-03-14 20:00:00 11.6 16 Oeste 26 Oeste 0 988.4 -0.5 95
2020-03-14 19:00:00 13.5 18 Oeste 28 Oeste 0 988.5 -0.6 76
2020-03-14 18:00:00 15.2 18 Oeste 30 Oeste 0 988.6 -0.8 68
2020-03-14 17:00:00 16.2 22 Oeste 30 Sudoeste 0 988.9 -1.4 62
2020-03-14 16:00:00 17.5 18 Sudoeste 26 Sudoeste 0 989.1 -1.9 53
2020-03-14 15:00:00 17.4 5 Sudoeste 15 Sudoeste 0 989.4 -2.3 51
2020-03-14 14:00:00 15.6 10 Sur 18 Sudoeste 0 990.3 -2 58
2020-03-14 13:00:00 13.6 8 Sur 17 Sudoeste 0 991 -1.5 63
2020-03-14 12:00:00 13.2 6 Sudeste 13 Este 0 991.7 -0.5 65
2020-03-14 11:00:00 10.8 5 Este 15 Este 0 992.3 0.3 68
2020-03-14 10:00:00 9.5 5 Este 11 Este 0 992.5 0.7 65
2020-03-14 09:00:00 6.4 3 Este 5 Este 0 992.2 0.5 97
2020-03-14 08:00:00 4 4 Nordeste 9 Norte 0 992 0.6 100
2020-03-14 07:00:00 4.4 6 Nordeste 9 Nordeste 0 991.8 0.1 100
2020-03-14 06:00:00 4.4 5 Norte 11 Norte 0 991.7 -0.1 92
2020-03-14 05:00:00 5.1 6 Norte 15 Norte 0 991.4 -0.5 100
2020-03-14 04:00:00 5.6 11 Norte 13 Norte 0 991.7 -0.7 100
2020-03-14 03:00:00 6.3 7 Norte 13 Norte 0 991.8 -0.5 100
2020-03-14 02:00:00 6.5 9 Norte -- -- -- 991.9 -0.4 100
2020-03-14 01:00:00 7.2 4 Nordeste 22 Norte 0 992.4 0.8 100
2020-03-14 00:00:00 7.9 13 Norte 18 Norte 0 992.3 1.3 99
2020-03-13 23:00:00 8.7 9 Nordeste 32 Norte 0 992.3 1.7 93
2020-03-13 22:00:00 9.8 25 Norte 37 Norte 0 991.6 1.7 87
2020-03-13 21:00:00 11.2 15 Norte 32 Norte 0 991 1.5 75
2020-03-13 20:00:00 12.4 23 Norte 33 Norte 0 990.6 1 68
2020-03-13 19:00:00 13.9 23 Norte 33 Norte 0 989.9 0 63
2020-03-13 18:00:00 15.5 15 Noroeste 37 Norte 0 989.5 -0.7 60
2020-03-13 17:00:00 15.7 25 Norte 39 Norte 0 989.6 -1.2 61
2020-03-13 16:00:00 15.6 24 Norte 37 Norte 0 989.9 -1.5 64
2020-03-13 15:00:00 16.4 18 Norte 28 Norte 0 990.2 -1.1 62
2020-03-13 14:00:00 15.6 14 Norte 33 Norte 0 990.8 -0.6 64
2020-03-13 13:00:00 14.3 21 Norte 33 Norte 0 991.4 0.2 68
2020-03-13 12:00:00 13.9 13 Norte 30 Nordeste 0 991.3 0.6 71
2020-03-13 11:00:00 12.6 13 Nordeste 22 Nordeste 0 991.4 1.2 75
2020-03-13 10:00:00 10.9 10 Nordeste 17 Nordeste 0 991.2 1.2 85
2020-03-13 09:00:00 8.9 8 Nordeste 18 Norte 0 990.7 0.8 92
2020-03-13 08:00:00 7.2 7 Norte 17 Norte 0 990.2 0.2 94
2020-03-13 07:00:00 7.3 10 Norte 17 Norte 0 990 -0.4 91
2020-03-13 06:00:00 7.7 14 Norte 21 Norte 0 989.9 -0.8 88
2020-03-13 05:00:00 7.5 13 Norte 26 Norte 0 990 -0.9 90
2020-03-13 04:00:00 7.9 15 Norte 24 Norte 0 990.4 -0.7 87
2020-03-13 03:00:00 8.1 16 Norte 32 Norte 0 990.7 -0.4 86
2020-03-13 02:00:00 8.5 18 Norte -- -- -- 990.9 -0.1 86
2020-03-13 01:00:00 8.7 19 Norte 32 Norte 0 991.1 0.3 86
2020-03-13 00:00:00 9.1 23 Norte 35 Norte 0 991.1 0.6 84
2020-03-12 23:00:00 9.4 20 Norte 39 Norte 0 991 0.6 84
2020-03-12 22:00:00 10.3 24 Norte 39 Norte 0 990.8 0.7 82
2020-03-12 21:00:00 10.3 25 Norte 41 Norte 0 990.5 0.8 88
2020-03-12 20:00:00 10.5 28 Norte 46 Norte 0 990.4 1 89
2020-03-12 19:00:00 11.3 32 Norte 54 Norte 0 990.1 0.5 87
2020-03-12 18:00:00 12.9 32 Norte 48 Norte 0 989.7 -0.4 79
2020-03-12 17:00:00 15.2 33 Norte 46 Norte 0 989.4 -1.5 68
2020-03-12 16:00:00 16.1 32 Norte 42 Norte 0 989.6 -2 62
2020-03-12 15:00:00 16.4 27 Norte 46 Norte 0 990.1 -1.9 62
2020-03-12 14:00:00 16.6 28 Norte 42 Norte 0 990.9 -1.1 61
2020-03-12 13:00:00 15.9 24 Norte 35 Norte 0 991.6 -0.2 64
2020-03-12 12:00:00 15.5 15 Norte 32 Norte 0 992 0.6 70
2020-03-12 11:00:00 14.3 18 Norte 32 Norte 0 992 1.2 77
2020-03-12 10:00:00 12.8 11 Nordeste 22 Norte 0 991.8 1.3 92
2020-03-12 09:00:00 10.4 6 Norte 21 Norte 0 991.4 0.9 100
2020-03-12 08:00:00 9.7 14 Norte 21 Norte 0 990.8 0.4 100
2020-03-12 07:00:00 9.5 14 Norte 18 Norte 0 990.5 -0.6 100
2020-03-12 06:00:00 9 9 Nordeste 17 Norte 0 990.5 -1.1 100
2020-03-12 05:00:00 9.6 12 Norte 17 Norte 0 990.4 -1.4 100
2020-03-12 04:00:00 10 9 Norte 15 Norte 0 991.1 -1 100
2020-03-12 03:00:00 10.6 7 Norte 11 Norte 0 991.6 -0.7 100
2020-03-12 02:00:00 11.1 9 Nordeste -- -- -- 991.8 -0.4 100
2020-03-12 01:00:00 11.7 8 Norte 11 Norte 0 992.1 -0.1 100
2020-03-12 00:00:00 12.1 6 Norte 9 Norte 0 992.3 0 100
2020-03-11 23:00:00 12.2 6 Norte 13 Norte 0 992.2 -0.2 100
2020-03-11 22:00:00 12.7 6 Norte 11 Noroeste 0 992.2 -0.1 100
2020-03-11 21:00:00 12.5 7 Oeste 17 Oeste 0 992.3 0.2 100
2020-03-11 20:00:00 12.2 12 Oeste 26 Oeste 0 992.4 0.4 100
2020-03-11 19:00:00 12.7 17 Oeste 30 Oeste 0 992.3 0.3 100
2020-03-11 18:00:00 13.6 19 Oeste 30 Oeste 0 992.1 -0.2 98
2020-03-11 17:00:00 15.1 19 Oeste 33 Sudoeste 0 992 -0.9 90
2020-03-11 16:00:00 16.5 18 Oeste 26 Oeste 0 992 -1.2 81
2020-03-11 15:00:00 17.2 13 Sudoeste 18 Sudoeste 0 992.3 -1.2 80
2020-03-11 14:00:00 16.3 7 Nordeste 13 Nordeste 0 992.9 -0.8 83
2020-03-11 13:00:00 15 7 Nordeste 11 Nordeste 0 993.2 -0.5 91
2020-03-11 12:00:00 11.5 5 Nordeste 9 Nordeste 0 993.5 0.1 100
2020-03-11 11:00:00 10.1 3 Este 9 Este 0 993.7 0.3 100
2020-03-11 10:00:00 8.6 4 Nordeste 11 Nordeste 0 993.7 0.1 100
2020-03-11 09:00:00 7.8 4 Sudoeste 9 Norte 0 993.4 -0.4 100
2020-03-11 08:00:00 7.5 6 Norte 9 Norte 0 993.4 -0.3 100
2020-03-11 07:00:00 7.9 6 Norte 11 Norte 0 993.6 -0.5 100
2020-03-11 06:00:00 8 5 Norte 13 Norte 0 993.8 -0.9 100
2020-03-11 05:00:00 7.6 3 Norte 9 Norte 0 993.7 -1.4 100
2020-03-11 04:00:00 8.4 4 Noroeste 9 Norte 0 994.1 -1.7 100
2020-03-11 03:00:00 8.7 6 Norte 11 Norte 0 994.7 -1.3 100
2020-03-11 02:00:00 8.7 5 Oeste -- -- -- 995.1 -0.8 100
2020-03-11 01:00:00 9.2 4 Oeste 8 Oeste 0 995.8 -0.3 100
2020-03-11 00:00:00 9.4 0 Calma 13 Oeste 0 996 -0.3 100
2020-03-10 23:00:00 9.9 7 Norte 9 Norte 0 995.9 -0.3 100
2020-03-10 22:00:00 10.2 2 Noroeste 11 Noroeste 0 996.1 0.2 100
2020-03-10 21:00:00 10.6 8 Oeste 22 Oeste 0 996.3 0.6 100
2020-03-10 20:00:00 11.8 4 Oeste 24 Oeste 0 996.2 0.2 99
2020-03-10 19:00:00 13.2 12 Oeste 22 Oeste 0 995.9 -0.3 91
2020-03-10 18:00:00 14.2 15 Oeste 22 Oeste 0 995.7 -0.8 85
2020-03-10 17:00:00 14.3 17 Oeste 30 Oeste 0 996 -1.1 83
2020-03-10 16:00:00 15.7 12 Sudoeste 22 Oeste 0 996.2 -1.4 77
2020-03-10 15:00:00 15 17 Sudoeste 24 Sudoeste 0 996.5 -1.1 80
2020-03-10 14:00:00 14.1 15 Sudoeste 24 Oeste 0 997.1 -0.4 80
2020-03-10 13:00:00 14.2 15 Oeste 28 Oeste 0 997.6 0.2 76
2020-03-10 12:00:00 11.6 10 Sudoeste 17 Sur 0 997.6 0.7 90
2020-03-10 11:00:00 11.4 9 Sur 13 Sur 0 997.5 0.6 94
2020-03-10 10:00:00 8.9 7 Sur 13 Sudoeste 0 997.4 0.4 100
2020-03-10 09:00:00 6.8 9 Sudoeste 13 Sudoeste 0 996.9 -0.1 100
2020-03-10 08:00:00 6.2 10 Sudoeste 15 Sudoeste 0 996.9 0.1 100
2020-03-10 07:00:00 6.9 9 Sudoeste 13 Sudoeste 0 997 0 100
2020-03-10 06:00:00 6.3 3 Oeste 8 Oeste 0 997 -0.6 100
2020-03-10 05:00:00 6.5 5 Oeste 9 Sudoeste 0 996.8 -1.3 100
2020-03-10 04:00:00 6.6 4 Sudoeste 5 Sudoeste 0 997 -1.5 100
2020-03-10 03:00:00 7 0 Calma 8 Noroeste 0 997.6 -1.2 100
2020-03-10 02:00:00 7.1 4 Oeste -- -- -- 998.1 -0.9 100
2020-03-10 01:00:00 7.5 4 Norte -- -- 0 998.5 -0.4 100
2020-03-10 00:00:00 7.5 5 Oeste 13 Noroeste 0 998.8 0 100
2020-03-09 23:00:00 8 5 Oeste 8 Oeste 0 999 0.4 100
2020-03-09 22:00:00 9.2 2 Noroeste 13 Sudoeste 0 998.9 0.6 99
2020-03-09 21:00:00 9.9 8 Oeste 18 Oeste 0 998.8 0.7 94
2020-03-09 20:00:00 10.6 13 Oeste 21 Oeste 0 998.6 0.2 87
2020-03-09 19:00:00 11.9 13 Oeste 21 Oeste 0 998.3 -0.6 77
2020-03-09 18:00:00 13.1 13 Oeste 26 Oeste 0 998.1 -1.3 73
2020-03-09 17:00:00 13.4 14 Oeste 22 Oeste 0 998.4 -1.7 70
2020-03-09 16:00:00 13.5 6 Sudoeste 15 Oeste 0 998.9 -1.7 71
2020-03-09 15:00:00 13.1 4 Nordeste 13 Nordeste 0 999.4 -1.4 71
2020-03-09 14:00:00 12.8 4 Norte 17 Noroeste 0 1000.1 -0.8 73
2020-03-09 13:00:00 12.8 4 Nordeste 17 Sur 0 1000.6 0 76
2020-03-09 12:00:00 11.2 10 Sudoeste 15 Sudoeste 0 1000.8 1 100
2020-03-09 11:00:00 9.1 8 Sur 11 Sur 0 1000.9 1.9 100
2020-03-09 10:00:00 7.7 4 Sur 11 Sudoeste 0 1000.6 1.4 100
2020-03-09 09:00:00 6.9 7 Sur 13 Sur 0 999.8 1.5 100
2020-03-09 08:00:00 7.1 7 Sudoeste 9 Sudoeste 0 999 0.7 100
2020-03-09 07:00:00 6.5 5 Norte 11 Sur 0 999.2 0.3 100
2020-03-09 06:00:00 7 7 Sudoeste 11 Sudoeste 0 998.3 -0.7 100
2020-03-09 05:00:00 7.2 6 Oeste 9 Oeste 0 998.3 -0.8 100
2020-03-09 04:00:00 7.6 5 Noroeste 9 Oeste 0 998.9 -0.3 100
2020-03-09 03:00:00 7.7 5 Noroeste 11 Oeste 0 999 -0.2 100
2020-03-09 02:00:00 9.4 8 Oeste -- -- -- 999.1 0.3 100
2020-03-09 01:00:00 9.3 7 Oeste 11 Oeste 0 999.2 0.8 100
2020-03-09 00:00:00 9.6 9 Oeste 21 Oeste 0 999.2 1 100
2020-03-08 23:00:00 9.4 8 Oeste 13 Oeste 0 998.8 1.1 100
2020-03-08 22:00:00 9.7 9 Oeste 22 Oeste 0 998.4 1.4 97
2020-03-08 21:00:00 9.5 10 Oeste 24 Oeste 0 998.2 1.4 100
2020-03-08 20:00:00 11 12 Oeste 18 Oeste 0 997.7 1.4 100
2020-03-08 19:00:00 11.7 5 Oeste 18 Oeste 0 997 1 95
2020-03-08 18:00:00 12.3 11 Oeste 22 Oeste 0 996.8 0.7 89
2020-03-08 17:00:00 11.7 8 Oeste 24 Sudoeste 0 996.3 0.3 100
2020-03-08 16:00:00 10.8 11 Sur 18 Sur 0.4 996 -0.7 100
2020-03-08 15:00:00 10.4 9 Sur 24 Sur 0.4 996.1 -0.6 100
2020-03-08 14:00:00 9.7 16 Sur 26 Sur 0.2 996 -0.2 100
2020-03-08 13:00:00 9.3 17 Sur 26 Sur 0.2 996.7 0.6 100
2020-03-08 12:00:00 8.8 16 Sur 26 Sur 0.1 996.7 0.7 100
2020-03-08 11:00:00 8.1 17 Sur 32 Sur 0.3 996.2 0.8 100
2020-03-08 10:00:00 7.8 15 Sur 26 Sur 0.5 996.1 0.8 100
2020-03-08 09:00:00 7.7 13 Sur 22 Sur 0.1 996 0.9 100
2020-03-08 08:00:00 7.7 13 Sur 22 Sur 0 995.4 0.3 99
2020-03-08 07:00:00 8.3 12 Sur 17 Sur 0 995.3 -0.3 92
2020-03-08 06:00:00 8.7 11 Sur 18 Sur 0 995.1 -1.2 84
2020-03-08 05:00:00 8.4 15 Sur 21 Sur 0 995.1 -0.9 87
2020-03-08 04:00:00 8.4 13 Sur 21 Sur 0 995.6 -0.6 86
2020-03-08 03:00:00 8.1 9 Sur 15 Sur 0 996.3 -0.6 90
2020-03-08 02:00:00 7.8 8 Sudoeste -- -- -- 996 -1 93
2020-03-08 01:00:00 7.6 8 Sudoeste 13 Sur 0 996.2 -0.9 95
2020-03-08 00:00:00 7.5 7 Oeste 11 Sudoeste 0 996.9 0.1 91
2020-03-07 23:00:00 8.6 9 Oeste 11 Oeste 0 997 0.1 90
2020-03-07 22:00:00 8.4 8 Oeste 11 Oeste 0 997.1 0.5 93
2020-03-07 21:00:00 9.3 7 Oeste 18 Oeste 0 996.8 0.7 77
2020-03-07 20:00:00 10.9 11 Oeste 28 Oeste 0 996.9 0.4 64
2020-03-07 19:00:00 11.4 18 Oeste 28 Oeste 0 996.6 -0.2 68
2020-03-07 18:00:00 12.6 17 Sudoeste 26 Sudoeste 0 996.1 -0.9 61
2020-03-07 17:00:00 12.9 17 Oeste 28 Oeste 0 996.5 -1.2 62
2020-03-07 16:00:00 13.5 13 Oeste 22 Oeste 0 996.8 -1.8 62
2020-03-07 15:00:00 14 14 Oeste 24 Sudoeste 0 997 -1.7 55
2020-03-07 14:00:00 14 9 Oeste 21 Sudoeste 0 997.7 -0.9 55
2020-03-07 13:00:00 13.4 3 Nordeste 17 Nordeste 0 998.6 0.1 55
2020-03-07 12:00:00 12.9 6 Nordeste 15 Nordeste 0 998.7 0.5 57
2020-03-07 11:00:00 13.1 6 Este 13 Este 0 998.6 0.5 76
2020-03-07 10:00:00 11.7 5 Este 9 Este 0 998.5 0.5 85
2020-03-07 09:00:00 8.3 5 Norte 13 Noroeste 0 998.2 0.4 100
2020-03-07 08:00:00 7.9 7 Norte 11 Norte 0 998.1 0.3 100
2020-03-07 07:00:00 7 3 Noroeste 5 Nordeste 0 998 -0.1 100
2020-03-07 06:00:00 7.8 2 Norte 9 Sudoeste 0 997.8 -0.8 100
2020-03-07 05:00:00 8.9 4 Sudoeste 9 Sudoeste 0 997.8 -0.5 98
2020-03-07 04:00:00 8.9 6 Sudoeste 11 Sur 0 998.1 -0.8 98
2020-03-07 03:00:00 8.7 7 Sudoeste 11 Sudoeste 0 998.6 -0.5 99
2020-03-07 02:00:00 9 7 Sur 9 Sur 0 998.3 -0.4 98
2020-03-07 01:00:00 9.1 4 Oeste 8 Oeste 0 998.9 0.6 97
2020-03-07 00:00:00 9.1 2 Noroeste 5 Oeste 0 999.1 1.4 95
2020-03-06 23:00:00 9 5 Norte 21 Norte 0 998.7 1.5 92
2020-03-06 22:00:00 10 10 Norte 28 Norte 0 998.3 1.8 81
2020-03-06 21:00:00 10.2 12 Noroeste 22 Noroeste 0 997.7 1.8 71
2020-03-06 20:00:00 10.5 16 Noroeste 30 Noroeste 0 997.2 1.5 61
2020-03-06 19:00:00 10.7 15 Noroeste 32 Noroeste 0 996.5 1.3 65
2020-03-06 18:00:00 11.6 20 Noroeste 33 Noroeste 0 995.9 0.5 65
2020-03-06 17:00:00 12 24 Noroeste 39 Noroeste 0 995.7 0.2 60
2020-03-06 16:00:00 11.4 19 Noroeste 37 Noroeste 0 995.2 -0.6 69
2020-03-06 15:00:00 11.8 17 Norte 37 Norte 0 995.4 -0.2 58
2020-03-06 14:00:00 11.5 18 Noroeste 33 Noroeste 0 995.5 0.4 63
2020-03-06 13:00:00 11.4 20 Noroeste 45 Noroeste 0 995.8 1.4 63
2020-03-06 12:00:00 10.5 9 Norte 17 Norte 0 995.6 2.4 79
2020-03-06 11:00:00 10.3 9 Este 21 Norte 0 995.1 2.9 83
2020-03-06 10:00:00 8.6 8 Norte 28 Norte 0 994.4 2.8 88
2020-03-06 09:00:00 7.8 11 Noroeste 24 Oeste 0 993.2 2.1 93
2020-03-06 08:00:00 7.6 3 Noroeste 28 Norte 0 992.2 1.5 91
2020-03-06 07:00:00 8 8 Noroeste 28 Noroeste 0 991.6 1.6 92
2020-03-06 06:00:00 7.7 9 Noroeste 22 Oeste 0.2 991.1 1.3 97
2020-03-06 05:00:00 8.1 12 Norte 28 Norte 0.4 990.7 1.6 93
2020-03-06 04:00:00 8.7 9 Oeste 35 Noroeste 0 990 1.4 80
2020-03-06 03:00:00 8.7 14 Noroeste 32 Oeste 0.1 989.8 1.2 89
2020-03-06 02:00:00 9.4 9 Noroeste 48 Noroeste 0 989.1 1.2 81
2020-03-06 01:00:00 9.3 13 Noroeste 33 Noroeste 0.2 988.6 0.4 98
2020-03-06 00:00:00 9.7 16 Oeste 35 Oeste 0 988.6 0.5 95
2020-03-05 23:00:00 9.9 15 Sudoeste 32 Sudoeste 0.2 987.9 -0.9 100
2020-03-05 22:00:00 9.9 14 Oeste 32 Oeste 1.1 988.2 -0.1 100
2020-03-05 21:00:00 9.8 9 Sudoeste 28 Sudoeste 0.6 988.1 0 98
2020-03-05 20:00:00 9.9 11 Oeste 24 Oeste 0.4 988.8 1 94
2020-03-05 19:00:00 10.1 10 Oeste 28 Oeste 0.5 988.3 1 94
2020-03-05 18:00:00 10.2 14 Noroeste 30 Noroeste 0.6 988.1 1.1 92
2020-03-05 17:00:00 11.9 19 Noroeste 35 Noroeste 0 987.8 0.9 73
2020-03-05 16:00:00 11.5 23 Noroeste 45 Noroeste 0 987.3 0.9 75
2020-03-05 15:00:00 12 25 Oeste 50 Noroeste 0 987 1.3 77
2020-03-05 14:00:00 12.1 24 Noroeste 41 Noroeste 0 986.9 2.7 83
2020-03-05 13:00:00 11.8 26 Noroeste 41 Noroeste 0.2 986.4 3 84
2020-03-05 12:00:00 11.3 19 Noroeste 41 Noroeste 0.1 985.7 2.8 93
2020-03-05 11:00:00 10.7 22 Oeste 37 Oeste 0.6 984.2 1.7 100
2020-03-05 10:00:00 10.8 18 Oeste 46 Oeste 0.9 983.4 1.7 98
2020-03-05 09:00:00 10.5 10 Sudoeste 30 Oeste 0.1 982.9 1.2 93
2020-03-05 08:00:00 9.9 17 Oeste 41 Oeste 0.8 982.5 1.1 100
2020-03-05 07:00:00 10.7 15 Sudoeste 39 Sudoeste 0 981.7 0.4 95
2020-03-05 06:00:00 10 13 Sudoeste 35 Sudoeste 0.5 981.7 1 100
2020-03-05 05:00:00 10.9 22 Oeste 41 Oeste 6.9 981.4 -0.4 100
2020-03-05 04:00:00 11 23 Oeste 54 Sudoeste 9.6 981.3 -1.6 100
2020-03-05 03:00:00 13.5 33 Sudoeste 58 Sur 8.9 980.7 -3.9 100
2020-03-05 02:00:00 13.5 31 Sudoeste 54 Sur 4.1 981.8 -4 100
2020-03-05 01:00:00 14.1 32 Sudoeste 50 Sur 0.8 982.9 -3.5 100
2020-03-05 00:00:00 14.8 29 Sudoeste 48 Sudoeste 0 984.6 -2.6 99
2020-03-04 23:00:00 14.5 31 Sur 48 Sur 0 985.8 -1.6 100
2020-03-04 22:00:00 14.3 25 Sur 42 Sudoeste 0 986.4 -1 100
2020-03-04 21:00:00 14.2 24 Sudoeste 46 Sur 1 987.2 -0.7 100
2020-03-04 20:00:00 14.2 23 Sudoeste 46 Sudoeste 0.6 987.4 -0.7 100
2020-03-04 19:00:00 14.2 27 Sudoeste 45 Sudoeste 0 987.4 -1.3 100
2020-03-04 18:00:00 14.4 23 Sudoeste 41 Sur 0.1 987.9 -1.5 100
2020-03-04 17:00:00 14.6 17 Sur 35 Sudoeste 0 988.1 -2.2 100
2020-03-04 16:00:00 15.2 23 Sudoeste 37 Sur 0 988.7 -2 100
2020-03-04 15:00:00 15.1 21 Sudoeste 33 Sudoeste 0 989.4 -1.7 100
2020-03-04 14:00:00 15.3 22 Sudoeste 35 Sudoeste 0 990.3 -0.9 96
2020-03-04 13:00:00 15.6 17 Sur 26 Sur 0 990.7 -0.2 95
2020-03-04 12:00:00 14.5 13 Sur 26 Sudoeste 0 991.1 0.5 100
2020-03-04 11:00:00 13.8 12 Sur 32 Sur 0 991.2 1 100
2020-03-04 10:00:00 13.2 21 Sudoeste 41 Sudoeste 1.6 990.9 0.7 100
2020-03-04 09:00:00 13.1 16 Sudoeste 30 Sudoeste 0.2 990.6 0.4 100
2020-03-04 08:00:00 12.9 15 Sudoeste 28 Sudoeste 0 990.2 0.2 100
2020-03-04 07:00:00 13 15 Sudoeste 30 Sur 0.4 990.2 0.1 100
2020-03-04 06:00:00 13 16 Sudoeste 37 Sudoeste 0 990.2 -0.2 100
2020-03-04 05:00:00 12.9 22 Sudoeste 39 Sudoeste 0 990 -0.5 100
2020-03-04 04:00:00 13 16 Sudoeste 37 Sudoeste 0.2 990.1 -0.6 100
2020-03-04 03:00:00 13.1 17 Sudoeste 32 Sudoeste 0 990.4 -0.3 100
2020-03-04 02:00:00 12.9 17 Sur 45 Sudoeste 0 990.5 0 100
2020-03-04 01:00:00 12.8 17 Sudoeste 32 Sudoeste 0 990.7 0.6 100
2020-03-04 00:00:00 13 18 Sudoeste 30 Oeste 0 990.7 0.9 100
2020-03-03 23:00:00 13.1 14 Sudoeste 28 Sudoeste 1.6 990.5 1 100
2020-03-03 22:00:00 13.2 15 Sudoeste 33 Oeste 3.7 990.1 1.1 100
2020-03-03 21:00:00 13.2 17 Sudoeste 28 Sudoeste 5.3 989.8 1.1 100
2020-03-03 20:00:00 13.1 17 Sudoeste 33 Sudoeste 4.4 989.5 1 100
2020-03-03 19:00:00 13.2 15 Sudoeste 24 Sudoeste 3 989 0.7 100
2020-03-03 18:00:00 12.9 8 Sur 17 Sudoeste 1.3 988.7 0.4 100
2020-03-03 17:00:00 13 5 Oeste 18 Sudoeste 1 988.5 0.3 100
2020-03-03 16:00:00 13.2 8 Oeste 28 Oeste 0.6 988.3 0.3 100
2020-03-03 15:00:00 13.2 13 Oeste 22 Oeste 0.7 988.3 0.6 100
2020-03-03 14:00:00 13.2 14 Oeste 33 Oeste 2.4 988.2 1.3 100
2020-03-03 13:00:00 13.3 15 Sudoeste 33 Sudoeste 3.5 988 2.1 100
2020-03-03 12:00:00 13.2 18 Sudoeste 39 Oeste 3.3 987.7 3 100
2020-03-03 11:00:00 13.1 23 Sudoeste 39 Sudoeste 1.1 986.9 2.5 100
2020-03-03 10:00:00 13.1 22 Sudoeste 61 Oeste 1.6 985.9 1.1 100
2020-03-03 09:00:00 13.1 31 Sudoeste 54 Sudoeste 1 984.7 -0.8 100
2020-03-03 08:00:00 12.6 29 Sudoeste 54 Sudoeste 1.6 984.4 -1 100
2020-03-03 07:00:00 12.4 32 Sudoeste 52 Sudoeste 0.1 984.8 -0.7 100
2020-03-03 06:00:00 11.7 25 Sudoeste 61 Sudoeste 0.1 985.5 -0.9 100
2020-03-03 05:00:00 11.2 27 Sur 45 Sur 1.1 985.4 -1.8 100
2020-03-03 04:00:00 10 20 Sur 35 Sur 0 985.5 -2.2 100
2020-03-03 03:00:00 9.2 15 Sur 24 Sur 0.1 986.4 -1.9 100
2020-03-03 02:00:00 9.3 13 Sur 28 Sur 1.3 987.2 -1.2 100
2020-03-03 01:00:00 9 6 Sur 15 Sur 0.6 987.7 -1 100
2020-03-03 00:00:00 8.5 6 Sur 15 Sur 0 988.3 -0.2 100
2020-03-02 23:00:00 8.4 6 Sur 15 Sur 0 988.4 0.3 100
2020-03-02 22:00:00 8 7 Sur 18 Sur 0.1 988.7 0.8 100
2020-03-02 21:00:00 8.5 15 Sudoeste 30 Sudoeste 0.2 988.5 1 100
2020-03-02 20:00:00 8.9 11 Sudoeste 21 Sudoeste 0.3 988.1 1.1 96
2020-03-02 19:00:00 9.7 9 Sur 15 Sur 0 987.9 1.2 80
2020-03-02 18:00:00 10.1 6 Oeste 21 Noroeste 0 987.5 1.5 71
2020-03-02 17:00:00 9.4 10 Oeste 33 Oeste 0 987 1.1 79
2020-03-02 16:00:00 11.2 17 Oeste 30 Sudoeste 0 986.7 1.4 65
2020-03-02 15:00:00 9.9 15 Sudoeste 41 Oeste 0 986 1.6 78
2020-03-02 14:00:00 10.8 23 Oeste 41 Oeste 0 985.9 3 60
2020-03-02 13:00:00 11.1 22 Noroeste 42 Oeste 0 985.3 3.6 57
2020-03-02 12:00:00 8 18 Noroeste 46 Noroeste 0.7 984.4 4.1 75
2020-03-02 11:00:00 9.1 10 Oeste 61 Noroeste 2.1 982.9 4.1 84
2020-03-02 10:00:00 9 15 Noroeste 26 Noroeste 0 981.7 3.7 83
2020-03-02 09:00:00 8 16 Noroeste 39 Noroeste 1.1 980.3 3.7 90
2020-03-02 08:00:00 8.6 14 Oeste 33 Oeste 0 978.8 3.4 89
2020-03-02 07:00:00 7.9 9 Noroeste 48 Oeste 1.3 978 3.5 97
2020-03-02 06:00:00 9.8 18 Oeste 46 Oeste 0 976.6 3.2 82
2020-03-02 05:00:00 10 22 Oeste 46 Oeste 0 975.4 4.3 83
2020-03-02 04:00:00 10.3 24 Oeste 42 Oeste 0 974.5 5.3 93
2020-03-02 03:00:00 10 18 Oeste 54 Oeste 0.4 973.4 3.2 100
2020-03-02 02:00:00 11.6 28 Oeste 85 Oeste 3.1 971.1 0 100
2020-03-02 01:00:00 13.3 40 Sudoeste 85 Sudoeste 0.3 969.2 -2.5 100
2020-03-02 00:00:00 13.4 48 Sudoeste 91 Sudoeste 0 970.2 -2.1 100
2020-03-01 23:00:00 13.4 54 Sudoeste 89 Sudoeste 1.9 971.1 -2.7 100
2020-03-01 22:00:00 13.3 42 Sudoeste 85 Sudoeste 5.2 971.7 -3.6 100
2020-03-01 21:00:00 12.1 44 Sudoeste 72 Sudoeste 5 972.3 -4.5 100
2020-03-01 20:00:00 10.2 23 Sur 42 Sur 2.7 973.8 -4.3 100
2020-03-01 19:00:00 10.9 18 Sur 30 Sur 3.1 975.3 -3.9 100
2020-03-01 18:00:00 11.3 21 Sur 39 Sur 1.9 976.8 -3.2 100
2020-03-01 17:00:00 13.1 27 Sur 45 Sur 0 978.1 -3.2 84
2020-03-01 16:00:00 13.7 23 Sudoeste 45 Sudoeste 0 979.2 -2.4 79
2020-03-01 15:00:00 13.4 28 Sudoeste 42 Sudoeste 0 980 -2.1 72
2020-03-01 14:00:00 13.2 24 Sudoeste 39 Sur 0 981.3 0.3 69
2020-03-01 13:00:00 12.6 16 Sudoeste 37 Sudoeste 0 981.6 0.4 77
2020-03-01 12:00:00 12.9 21 Sudoeste 35 Sudoeste 0 982.1 0.8 71
2020-03-01 11:00:00 13.1 15 Sudoeste 24 Oeste 0 981 0.5 78
2020-03-01 10:00:00 11.8 14 Sudoeste 24 Sudoeste 0 981.2 0.8 85
2020-03-01 09:00:00 11.5 11 Oeste 32 Sudoeste 0.1 981.3 1.1 96
2020-03-01 08:00:00 11.9 19 Sudoeste 37 Sudoeste 0 980.5 0.5 100
2020-03-01 07:00:00 12 19 Sudoeste 32 Sudoeste 0 980.4 1.4 100
2020-03-01 06:00:00 12.2 23 Sudoeste 48 Sudoeste 0.5 980.2 -0.3 100
2020-03-01 05:00:00 12.2 33 Sudoeste 84 Sudoeste 1.8 980 -1.1 100
2020-03-01 04:00:00 10.3 23 Sur 50 Sur 0.2 979 -3.6 100
2020-03-01 03:00:00 10.1 27 Sur 46 Sur 0.3 980.5 -2.4 100
2020-03-01 02:00:00 9.2 15 Sur 28 Sur 0 981.1 -2.1 100
2020-03-01 01:00:00 9.3 21 Sur 37 Sudoeste 0.3 982.6 -0.9 100
2020-03-01 00:00:00 8.7 13 Sur 24 Sur 0.4 982.9 -0.7 100
2020-02-29 23:00:00 8.6 11 Sur 15 Sur 0 983.2 -0.2 100
2020-02-29 22:00:00 8.7 6 Sur 24 Sur 0.2 983.5 0.6 100
2020-02-29 21:00:00 9.1 6 Sur 21 Sudoeste 0 983.6 0.6 100
2020-02-29 20:00:00 9.3 15 Sudoeste 45 Sudoeste 0.5 983.4 0.4 100
2020-02-29 19:00:00 10.4 12 Sudoeste 28 Sudoeste 0 982.9 0 94
2020-02-29 18:00:00 10.8 17 Sudoeste 39 Sudoeste 0 983 0 82
2020-02-29 17:00:00 11.6 28 Sudoeste 41 Sudoeste 0 983 -0.2 65
2020-02-29 16:00:00 11.5 26 Sudoeste 46 Sudoeste 0 982.9 -0.5 71
2020-02-29 15:00:00 11.4 30 Sudoeste 48 Sudoeste 0 983 0.1 71
2020-02-29 14:00:00 11.6 23 Sudoeste 42 Sudoeste 0 983.2 1.1 75
2020-02-29 13:00:00 11.1 19 Oeste 50 Sudoeste 0 983.4 1.7 83
2020-02-29 12:00:00 11.6 28 Sudoeste 42 Sudoeste 0 982.9 2.2 76
2020-02-29 11:00:00 11.5 16 Sudoeste 32 Sudoeste 0 982.1 2.4 78
2020-02-29 10:00:00 10.6 13 Oeste 32 Sudoeste 0 981.7 2.8 83
2020-02-29 09:00:00 10.5 17 Sudoeste 39 Sudoeste 0 980.7 2 77
2020-02-29 08:00:00 10.7 17 Sudoeste 30 Sudoeste 0 979.7 2.2 88
2020-02-29 07:00:00 10.5 11 Sur 28 Oeste 0.7 978.9 1.7 100
2020-02-29 06:00:00 10.3 18 Oeste 76 Sudoeste 5.9 978.7 1 100
2020-02-29 05:00:00 12.9 44 Sudoeste 80 Sudoeste 3.2 977.5 -1.1 100
2020-02-29 04:00:00 11.8 31 Sur 55 Sur 3.8 977.2 -2.5 100
2020-02-29 03:00:00 11.8 38 Sur 74 Sudoeste 1.9 977.7 -3.1 100
2020-02-29 02:00:00 10.4 33 Sur 50 Sur 0.2 978.6 -4 100
2020-02-29 01:00:00 10.2 27 Sur 48 Sur 2.1 979.7 -3.3 100
2020-02-29 00:00:00 10.3 19 Sur 37 Sudeste 0 980.8 -2.9 99
2020-02-28 23:00:00 10.3 29 Sur 45 Sur 0 982.6 -1.6 96
2020-02-28 22:00:00 10.2 30 Sur 41 Sur 0 983 -1.1 92
2020-02-28 21:00:00 10.5 26 Sur 33 Sur 0 983.7 -0.5 94
2020-02-28 20:00:00 11.5 21 Sudoeste 28 Sudoeste 0 984.2 -0.4 60
2020-02-28 19:00:00 12.3 16 Sudoeste 30 Sudoeste 0 984.1 -1.3 81
2020-02-28 18:00:00 15.3 23 Sudoeste 39 Sudoeste 0 984.2 -2.3 36
2020-02-28 17:00:00 16.8 24 Sur 35 Sudoeste 0 984.6 -3.4 34
2020-02-28 16:00:00 17.3 24 Sur 33 Sur 0 985.4 -3.9 42
2020-02-28 15:00:00 16.1 13 Sur 24 Sur 0 986.5 -3.7 54
2020-02-28 14:00:00 13.9 15 Sur 24 Sur 0 988 -2.7 60
2020-02-28 13:00:00 12.3 13 Sur 26 Sur 0 989.3 -1.8 77
2020-02-28 12:00:00 9.2 15 Sur 21 Sur 0 990.2 -1.2 100
2020-02-28 11:00:00 8.1 10 Sudoeste 17 Sudoeste 0 990.7 -0.8 100
2020-02-28 10:00:00 7.1 12 Sudoeste 18 Sur 0 991.1 -0.8 100
2020-02-28 09:00:00 7.2 13 Sudoeste 17 Sudoeste 0 991.4 -0.7 100
2020-02-28 08:00:00 7.2 13 Sudoeste 18 Sudoeste 0 991.5 -0.9 100
2020-02-28 07:00:00 7.9 12 Sudoeste 21 Sudoeste 0 991.9 -1.3 100
2020-02-28 06:00:00 8.2 15 Sudoeste 18 Sur 0 992.1 -1.6 100
2020-02-28 05:00:00 8.7 9 Sudoeste 18 Sur 0 992.4 -1.6 100
2020-02-28 04:00:00 8.8 12 Sudoeste 22 Sur 0 993.2 -1.3 100
2020-02-28 03:00:00 9.2 12 Sudoeste 17 Sudoeste 0 993.7 -1.1 100
2020-02-28 02:00:00 9.6 12 Sudoeste 18 Sur 0 994 -1.2 100
2020-02-28 01:00:00 10 12 Sur 17 Sur 0 994.5 -0.4 100
2020-02-28 00:00:00 9.9 8 Sudoeste 11 Sudoeste 0 994.8 -0.3 100